sensor_id;sensor_type;location;lat;lon;timestamp;temperature;humidity
1476;DHT22;730;48.870;12.542;2022-12-05T00:01:26;5.70;13.80
1476;DHT22;730;48.870;12.542;2022-12-05T00:03:55;5.70;14.10
1476;DHT22;730;48.870;12.542;2022-12-05T00:06:23;5.70;13.70
1476;DHT22;730;48.870;12.542;2022-12-05T00:08:50;5.60;13.60
1476;DHT22;730;48.870;12.542;2022-12-05T00:11:23;5.70;14.10
1476;DHT22;730;48.870;12.542;2022-12-05T00:13:51;5.80;13.60
1476;DHT22;730;48.870;12.542;2022-12-05T00:16:19;5.70;13.80
1476;DHT22;730;48.870;12.542;2022-12-05T00:18:46;5.60;14.60
1476;DHT22;730;48.870;12.542;2022-12-05T00:21:15;5.60;14.40
1476;DHT22;730;48.870;12.542;2022-12-05T00:23:43;5.50;14.70
1476;DHT22;730;48.870;12.542;2022-12-05T00:26:10;5.60;15.10
1476;DHT22;730;48.870;12.542;2022-12-05T00:28:36;5.60;14.90
1476;DHT22;730;48.870;12.542;2022-12-05T00:31:11;5.60;14.70
1476;DHT22;730;48.870;12.542;2022-12-05T00:33:38;5.60;14.70
1476;DHT22;730;48.870;12.542;2022-12-05T00:36:07;5.60;15.10
1476;DHT22;730;48.870;12.542;2022-12-05T00:38:34;5.60;15.00
1476;DHT22;730;48.870;12.542;2022-12-05T00:41:10;5.70;15.00
1476;DHT22;730;48.870;12.542;2022-12-05T00:43:37;5.70;14.60
1476;DHT22;730;48.870;12.542;2022-12-05T00:46:15;5.70;14.40
1476;DHT22;730;48.870;12.542;2022-12-05T00:48:42;5.70;14.30
1476;DHT22;730;48.870;12.542;2022-12-05T00:51:16;5.80;14.30
1476;DHT22;730;48.870;12.542;2022-12-05T00:53:43;5.80;14.00
1476;DHT22;730;48.870;12.542;2022-12-05T00:56:16;5.90;14.00
1476;DHT22;730;48.870;12.542;2022-12-05T00:58:43;5.90;13.50
1476;DHT22;730;48.870;12.542;2022-12-05T01:01:13;6.00;13.20
1476;DHT22;730;48.870;12.542;2022-12-05T01:03:40;6.00;12.80
1476;DHT22;730;48.870;12.542;2022-12-05T01:06:07;6.10;12.50
1476;DHT22;730;48.870;12.542;2022-12-05T01:08:34;6.10;12.00
1476;DHT22;730;48.870;12.542;2022-12-05T01:11:00;6.10;11.70
1476;DHT22;730;48.870;12.542;2022-12-05T01:13:27;6.10;11.50
1476;DHT22;730;48.870;12.542;2022-12-05T01:15:53;6.20;11.10
1476;DHT22;730;48.870;12.542;2022-12-05T01:18:20;6.20;11.10
1476;DHT22;730;48.870;12.542;2022-12-05T01:20:48;6.20;10.70
1476;DHT22;730;48.870;12.542;2022-12-05T01:23:14;6.20;10.70
1476;DHT22;730;48.870;12.542;2022-12-05T01:25:42;6.20;10.70
1476;DHT22;730;48.870;12.542;2022-12-05T01:28:09;6.20;11.30
1476;DHT22;730;48.870;12.542;2022-12-05T01:30:39;6.20;10.50
1476;DHT22;730;48.870;12.542;2022-12-05T01:33:06;6.20;10.20
1476;DHT22;730;48.870;12.542;2022-12-05T01:35:35;6.10;9.90
1476;DHT22;730;48.870;12.542;2022-12-05T01:38:02;6.00;10.10
1476;DHT22;730;48.870;12.542;2022-12-05T01:40:30;6.00;10.30
1476;DHT22;730;48.870;12.542;2022-12-05T01:42:56;5.80;10.60
1476;DHT22;730;48.870;12.542;2022-12-05T01:45:38;5.60;11.10
1476;DHT22;730;48.870;12.542;2022-12-05T01:48:12;5.50;11.70
1476;DHT22;730;48.870;12.542;2022-12-05T01:50:40;5.40;13.00
1476;DHT22;730;48.870;12.542;2022-12-05T01:53:06;5.40;13.00
1476;DHT22;730;48.870;12.542;2022-12-05T01:55:34;5.40;13.00
1476;DHT22;730;48.870;12.542;2022-12-05T01:58:02;5.40;12.80
1476;DHT22;730;48.870;12.542;2022-12-05T02:00:29;5.40;12.60
1476;DHT22;730;48.870;12.542;2022-12-05T02:03:01;5.30;12.70
1476;DHT22;730;48.870;12.542;2022-12-05T02:05:33;5.20;13.60
1476;DHT22;730;48.870;12.542;2022-12-05T02:08:02;5.20;14.00
1476;DHT22;730;48.870;12.542;2022-12-05T02:10:32;5.20;14.10
1476;DHT22;730;48.870;12.542;2022-12-05T02:13:32;5.20;14.20
1476;DHT22;730;48.870;12.542;2022-12-05T02:30:07;5.40;13.40
1476;DHT22;730;48.870;12.542;2022-12-05T02:37:58;5.50;13.00
1476;DHT22;730;48.870;12.542;2022-12-05T02:40:56;5.60;12.60
1476;DHT22;730;48.870;12.542;2022-12-05T02:43:23;5.50;12.10
1476;DHT22;730;48.870;12.542;2022-12-05T02:45:53;5.60;11.90
1476;DHT22;730;48.870;12.542;2022-12-05T02:48:22;5.70;11.30
1476;DHT22;730;48.870;12.542;2022-12-05T02:50:52;5.50;10.60
1476;DHT22;730;48.870;12.542;2022-12-05T02:53:21;5.40;11.10
1476;DHT22;730;48.870;12.542;2022-12-05T02:55:49;5.40;11.80
1476;DHT22;730;48.870;12.542;2022-12-05T02:58:19;5.40;11.60
1476;DHT22;730;48.870;12.542;2022-12-05T03:00:49;5.40;11.50
1476;DHT22;730;48.870;12.542;2022-12-05T03:03:17;5.30;12.10
1476;DHT22;730;48.870;12.542;2022-12-05T03:06:02;5.40;12.00
1476;DHT22;730;48.870;12.542;2022-12-05T03:08:53;5.50;11.80
1476;DHT22;730;48.870;12.542;2022-12-05T03:11:21;5.50;11.20
1476;DHT22;730;48.870;12.542;2022-12-05T03:13:50;5.60;10.90
1476;DHT22;730;48.870;12.542;2022-12-05T03:16:45;5.60;10.50
1476;DHT22;730;48.870;12.542;2022-12-05T03:19:25;5.60;10.30
1476;DHT22;730;48.870;12.542;2022-12-05T03:22:01;5.60;10.10
1476;DHT22;730;48.870;12.542;2022-12-05T03:24:28;5.60;10.10
1476;DHT22;730;48.870;12.542;2022-12-05T03:27:10;5.50;10.30
1476;DHT22;730;48.870;12.542;2022-12-05T03:29:53;5.50;10.60
1476;DHT22;730;48.870;12.542;2022-12-05T03:32:32;5.60;10.40
1476;DHT22;730;48.870;12.542;2022-12-05T03:37:44;5.50;10.50
1476;DHT22;730;48.870;12.542;2022-12-05T03:45:49;5.40;11.20
1476;DHT22;730;48.870;12.542;2022-12-05T03:51:03;5.40;11.40
1476;DHT22;730;48.870;12.542;2022-12-05T03:53:36;5.50;11.50
1476;DHT22;730;48.870;12.542;2022-12-05T03:56:17;5.40;11.00
1476;DHT22;730;48.870;12.542;2022-12-05T03:58:54;5.30;10.90
1476;DHT22;730;48.870;12.542;2022-12-05T04:01:23;5.30;11.90
1476;DHT22;730;48.870;12.542;2022-12-05T04:04:07;5.30;12.20
1476;DHT22;730;48.870;12.542;2022-12-05T04:06:37;5.30;12.00
1476;DHT22;730;48.870;12.542;2022-12-05T04:09:28;5.30;12.30
1476;DHT22;730;48.870;12.542;2022-12-05T04:12:06;5.30;12.30
1476;DHT22;730;48.870;12.542;2022-12-05T04:14:41;5.30;11.80
1476;DHT22;730;48.870;12.542;2022-12-05T04:20:12;5.40;11.60
1476;DHT22;730;48.870;12.542;2022-12-05T04:22:58;5.30;11.70
1476;DHT22;730;48.870;12.542;2022-12-05T04:25:28;5.30;11.90
1476;DHT22;730;48.870;12.542;2022-12-05T04:31:10;5.20;11.70
1476;DHT22;730;48.870;12.542;2022-12-05T04:33:45;5.20;11.90
1476;DHT22;730;48.870;12.542;2022-12-05T04:36:29;5.10;13.00
1476;DHT22;730;48.870;12.542;2022-12-05T04:39:06;5.10;12.70
1476;DHT22;730;48.870;12.542;2022-12-05T04:41:49;5.10;12.50
1476;DHT22;730;48.870;12.542;2022-12-05T04:44:19;5.10;12.70
1476;DHT22;730;48.870;12.542;2022-12-05T04:46:46;5.10;12.40
1476;DHT22;730;48.870;12.542;2022-12-05T04:49:18;5.10;12.30
1476;DHT22;730;48.870;12.542;2022-12-05T04:51:48;5.20;12.30
1476;DHT22;730;48.870;12.542;2022-12-05T04:54:29;5.20;12.00
1476;DHT22;730;48.870;12.542;2022-12-05T04:57:04;5.20;11.90
1476;DHT22;730;48.870;12.542;2022-12-05T04:59:33;5.10;11.90
1476;DHT22;730;48.870;12.542;2022-12-05T05:02:06;5.10;11.90
1476;DHT22;730;48.870;12.542;2022-12-05T05:04:35;5.10;11.10
1476;DHT22;730;48.870;12.542;2022-12-05T05:07:10;5.10;10.80
1476;DHT22;730;48.870;12.542;2022-12-05T05:09:38;5.10;10.50
1476;DHT22;730;48.870;12.542;2022-12-05T05:12:05;5.00;10.00
1476;DHT22;730;48.870;12.542;2022-12-05T05:14:32;5.00;9.90
1476;DHT22;730;48.870;12.542;2022-12-05T05:16:58;5.00;9.90
1476;DHT22;730;48.870;12.542;2022-12-05T05:19:24;5.10;9.60
1476;DHT22;730;48.870;12.542;2022-12-05T05:21:51;5.20;9.40
1476;DHT22;730;48.870;12.542;2022-12-05T05:24:17;5.20;9.50
1476;DHT22;730;48.870;12.542;2022-12-05T05:26:44;5.20;9.00
1476;DHT22;730;48.870;12.542;2022-12-05T05:29:12;5.20;9.10
1476;DHT22;730;48.870;12.542;2022-12-05T05:31:39;5.30;9.10
1476;DHT22;730;48.870;12.542;2022-12-05T05:34:07;5.30;8.70
1476;DHT22;730;48.870;12.542;2022-12-05T05:36:34;5.30;8.20
1476;DHT22;730;48.870;12.542;2022-12-05T05:39:01;5.30;7.70
1476;DHT22;730;48.870;12.542;2022-12-05T05:41:31;5.30;7.10
1476;DHT22;730;48.870;12.542;2022-12-05T05:43:58;5.20;7.40
1476;DHT22;730;48.870;12.542;2022-12-05T05:46:27;5.20;7.50
1476;DHT22;730;48.870;12.542;2022-12-05T05:48:54;5.20;7.40
1476;DHT22;730;48.870;12.542;2022-12-05T05:51:22;5.20;7.40
1476;DHT22;730;48.870;12.542;2022-12-05T05:53:50;5.20;7.00
1476;DHT22;730;48.870;12.542;2022-12-05T05:56:18;5.20;7.00
1476;DHT22;730;48.870;12.542;2022-12-05T05:58:44;5.20;6.90
1476;DHT22;730;48.870;12.542;2022-12-05T06:01:20;5.20;6.80
1476;DHT22;730;48.870;12.542;2022-12-05T06:03:47;5.20;6.60
1476;DHT22;730;48.870;12.542;2022-12-05T06:06:13;5.20;6.50
1476;DHT22;730;48.870;12.542;2022-12-05T06:08:42;5.10;6.30
1476;DHT22;730;48.870;12.542;2022-12-05T06:11:13;5.20;5.90
1476;DHT22;730;48.870;12.542;2022-12-05T06:13:40;5.20;6.40
1476;DHT22;730;48.870;12.542;2022-12-05T06:16:08;5.10;6.40
1476;DHT22;730;48.870;12.542;2022-12-05T06:18:35;5.20;6.00
1476;DHT22;730;48.870;12.542;2022-12-05T06:21:02;5.20;5.80
1476;DHT22;730;48.870;12.542;2022-12-05T06:23:30;5.10;6.00
1476;DHT22;730;48.870;12.542;2022-12-05T06:25:56;5.20;5.90
1476;DHT22;730;48.870;12.542;2022-12-05T06:28:23;5.10;5.70
1476;DHT22;730;48.870;12.542;2022-12-05T06:30:50;5.10;5.50
1476;DHT22;730;48.870;12.542;2022-12-05T06:33:17;5.10;5.60
1476;DHT22;730;48.870;12.542;2022-12-05T06:35:43;5.10;5.80
1476;DHT22;730;48.870;12.542;2022-12-05T06:38:10;5.10;5.60
1476;DHT22;730;48.870;12.542;2022-12-05T06:40:43;5.10;5.50
1476;DHT22;730;48.870;12.542;2022-12-05T06:43:10;5.10;5.60
1476;DHT22;730;48.870;12.542;2022-12-05T06:45:37;5.10;5.60
1476;DHT22;730;48.870;12.542;2022-12-05T06:48:03;5.10;5.40
1476;DHT22;730;48.870;12.542;2022-12-05T06:50:29;5.10;5.40
1476;DHT22;730;48.870;12.542;2022-12-05T06:52:56;5.00;5.20
1476;DHT22;730;48.870;12.542;2022-12-05T06:55:22;5.00;5.30
1476;DHT22;730;48.870;12.542;2022-12-05T06:57:48;5.00;5.20
1476;DHT22;730;48.870;12.542;2022-12-05T07:00:14;5.00;5.50
1476;DHT22;730;48.870;12.542;2022-12-05T07:02:59;5.00;5.90
1476;DHT22;730;48.870;12.542;2022-12-05T07:05:25;4.90;6.00
1476;DHT22;730;48.870;12.542;2022-12-05T07:07:51;5.00;6.60
1476;DHT22;730;48.870;12.542;2022-12-05T07:10:18;4.90;6.10
1476;DHT22;730;48.870;12.542;2022-12-05T07:12:44;5.00;6.00
1476;DHT22;730;48.870;12.542;2022-12-05T07:15:10;5.00;5.90
1476;DHT22;730;48.870;12.542;2022-12-05T07:17:37;4.90;5.60
1476;DHT22;730;48.870;12.542;2022-12-05T07:20:07;4.90;6.00
1476;DHT22;730;48.870;12.542;2022-12-05T07:22:35;4.90;6.00
1476;DHT22;730;48.870;12.542;2022-12-05T07:25:02;4.90;6.00
1476;DHT22;730;48.870;12.542;2022-12-05T07:27:28;4.90;6.00
1476;DHT22;730;48.870;12.542;2022-12-05T07:29:55;4.90;6.00
1476;DHT22;730;48.870;12.542;2022-12-05T07:32:21;4.80;5.60
1476;DHT22;730;48.870;12.542;2022-12-05T07:34:47;4.80;6.20
1476;DHT22;730;48.870;12.542;2022-12-05T07:37:13;4.80;6.60
1476;DHT22;730;48.870;12.542;2022-12-05T07:39:39;4.80;6.90
1476;DHT22;730;48.870;12.542;2022-12-05T07:42:05;4.70;7.00
1476;DHT22;730;48.870;12.542;2022-12-05T07:44:31;4.70;7.10
1476;DHT22;730;48.870;12.542;2022-12-05T07:46:57;4.70;7.10
1476;DHT22;730;48.870;12.542;2022-12-05T07:49:24;4.70;7.20
1476;DHT22;730;48.870;12.542;2022-12-05T07:51:50;4.70;6.90
1476;DHT22;730;48.870;12.542;2022-12-05T07:54:16;4.60;6.90
1476;DHT22;730;48.870;12.542;2022-12-05T07:56:42;4.60;7.10
1476;DHT22;730;48.870;12.542;2022-12-05T07:59:08;4.60;7.30
1476;DHT22;730;48.870;12.542;2022-12-05T08:01:34;4.50;7.40
1476;DHT22;730;48.870;12.542;2022-12-05T08:04:01;4.50;7.70
1476;DHT22;730;48.870;12.542;2022-12-05T08:06:32;4.50;8.10
1476;DHT22;730;48.870;12.542;2022-12-05T08:08:58;4.50;8.50
1476;DHT22;730;48.870;12.542;2022-12-05T08:11:32;4.40;8.60
1476;DHT22;730;48.870;12.542;2022-12-05T08:14:02;4.40;9.00
1476;DHT22;730;48.870;12.542;2022-12-05T08:16:29;4.40;8.90
1476;DHT22;730;48.870;12.542;2022-12-05T08:18:58;4.40;8.80
1476;DHT22;730;48.870;12.542;2022-12-05T08:21:24;4.40;8.40
1476;DHT22;730;48.870;12.542;2022-12-05T08:23:51;4.30;8.20
1476;DHT22;730;48.870;12.542;2022-12-05T08:26:22;4.30;8.60
1476;DHT22;730;48.870;12.542;2022-12-05T08:28:54;4.20;8.50
1476;DHT22;730;48.870;12.542;2022-12-05T08:31:22;4.20;8.70
1476;DHT22;730;48.870;12.542;2022-12-05T08:33:50;4.10;9.10
1476;DHT22;730;48.870;12.542;2022-12-05T08:36:17;4.10;9.60
1476;DHT22;730;48.870;12.542;2022-12-05T08:38:44;4.10;9.80
1476;DHT22;730;48.870;12.542;2022-12-05T08:41:12;4.10;10.30
1476;DHT22;730;48.870;12.542;2022-12-05T08:43:38;4.10;10.20
1476;DHT22;730;48.870;12.542;2022-12-05T08:46:05;4.10;10.60
1476;DHT22;730;48.870;12.542;2022-12-05T08:48:32;4.10;10.70
1476;DHT22;730;48.870;12.542;2022-12-05T08:50:59;4.10;10.70
1476;DHT22;730;48.870;12.542;2022-12-05T08:53:28;4.20;10.40
1476;DHT22;730;48.870;12.542;2022-12-05T08:55:55;4.20;10.20
1476;DHT22;730;48.870;12.542;2022-12-05T08:58:21;4.30;10.10
1476;DHT22;730;48.870;12.542;2022-12-05T09:00:47;4.30;9.40
1476;DHT22;730;48.870;12.542;2022-12-05T09:03:13;4.30;9.00
1476;DHT22;730;48.870;12.542;2022-12-05T09:05:39;4.30;9.10
1476;DHT22;730;48.870;12.542;2022-12-05T09:08:05;4.30;8.80
1476;DHT22;730;48.870;12.542;2022-12-05T09:10:31;4.30;8.80
1476;DHT22;730;48.870;12.542;2022-12-05T09:12:57;4.40;8.70
1476;DHT22;730;48.870;12.542;2022-12-05T09:15:23;4.40;8.80
1476;DHT22;730;48.870;12.542;2022-12-05T09:17:49;4.40;8.80
1476;DHT22;730;48.870;12.542;2022-12-05T09:20:15;4.50;8.70
1476;DHT22;730;48.870;12.542;2022-12-05T09:22:42;4.50;8.20
1476;DHT22;730;48.870;12.542;2022-12-05T09:25:08;4.60;8.00
1476;DHT22;730;48.870;12.542;2022-12-05T09:27:34;4.70;7.20
1476;DHT22;730;48.870;12.542;2022-12-05T09:30:06;4.70;6.90
1476;DHT22;730;48.870;12.542;2022-12-05T09:32:33;4.70;6.90
1476;DHT22;730;48.870;12.542;2022-12-05T09:34:59;4.80;6.70
1476;DHT22;730;48.870;12.542;2022-12-05T09:37:26;4.80;6.60
1476;DHT22;730;48.870;12.542;2022-12-05T09:39:52;4.80;6.20
1476;DHT22;730;48.870;12.542;2022-12-05T09:42:40;4.90;6.20
1476;DHT22;730;48.870;12.542;2022-12-05T09:47:51;5.00;5.80
1476;DHT22;730;48.870;12.542;2022-12-05T09:50:41;5.00;5.70
1476;DHT22;730;48.870;12.542;2022-12-05T09:53:14;5.00;5.50
1476;DHT22;730;48.870;12.542;2022-12-05T09:55:52;5.10;5.50
1476;DHT22;730;48.870;12.542;2022-12-05T09:58:25;5.10;4.90
1476;DHT22;730;48.870;12.542;2022-12-05T10:09:33;5.20;3.20
1476;DHT22;730;48.870;12.542;2022-12-05T10:12:40;5.20;1.30
1476;DHT22;730;48.870;12.542;2022-12-05T10:17:53;5.20;2.40
1476;DHT22;730;48.870;12.542;2022-12-05T10:20:35;5.20;1.90
1476;DHT22;730;48.870;12.542;2022-12-05T10:23:11;5.30;2.20
1476;DHT22;730;48.870;12.542;2022-12-05T10:25:40;5.20;1.00
1476;DHT22;730;48.870;12.542;2022-12-05T10:28:26;5.20;1.30
1476;DHT22;730;48.870;12.542;2022-12-05T10:30:55;5.10;1.30
1476;DHT22;730;48.870;12.542;2022-12-05T10:33:23;5.00;1.50
1476;DHT22;730;48.870;12.542;2022-12-05T10:35:49;5.00;1.40
1476;DHT22;730;48.870;12.542;2022-12-05T10:38:28;4.90;1.70
1476;DHT22;730;48.870;12.542;2022-12-05T10:41:02;4.80;2.60
1476;DHT22;730;48.870;12.542;2022-12-05T10:43:31;4.90;2.80
1476;DHT22;730;48.870;12.542;2022-12-05T10:45:58;5.00;2.50
1476;DHT22;730;48.870;12.542;2022-12-05T10:48:25;5.00;2.50
1476;DHT22;730;48.870;12.542;2022-12-05T10:50:54;5.10;2.40
1476;DHT22;730;48.870;12.542;2022-12-05T10:53:24;5.20;2.90
1476;DHT22;730;48.870;12.542;2022-12-05T10:55:52;5.30;2.60
1476;DHT22;730;48.870;12.542;2022-12-05T10:58:26;5.30;2.80
1476;DHT22;730;48.870;12.542;2022-12-05T11:00:56;5.20;1.70
1476;DHT22;730;48.870;12.542;2022-12-05T11:03:27;5.10;2.10
1476;DHT22;730;48.870;12.542;2022-12-05T11:05:56;5.10;3.20
1476;DHT22;730;48.870;12.542;2022-12-05T11:08:31;5.10;4.10
1476;DHT22;730;48.870;12.542;2022-12-05T11:16:32;5.20;3.70
1476;DHT22;730;48.870;12.542;2022-12-05T11:21:48;5.20;3.40
1476;DHT22;730;48.870;12.542;2022-12-05T11:24:36;5.10;3.20
1476;DHT22;730;48.870;12.542;2022-12-05T11:29:43;5.30;3.20
1476;DHT22;730;48.870;12.542;2022-12-05T11:32:22;5.30;3.20
1476;DHT22;730;48.870;12.542;2022-12-05T11:34:57;5.30;3.20
1476;DHT22;730;48.870;12.542;2022-12-05T11:37:30;5.40;2.60
1476;DHT22;730;48.870;12.542;2022-12-05T11:39:58;5.40;1.90
1476;DHT22;730;48.870;12.542;2022-12-05T11:42:34;5.30;2.30
1476;DHT22;730;48.870;12.542;2022-12-05T11:50:58;5.30;1.90
1476;DHT22;730;48.870;12.542;2022-12-05T11:53:48;5.30;1.60
1476;DHT22;730;48.870;12.542;2022-12-05T12:02:03;5.20;2.10
1476;DHT22;730;48.870;12.542;2022-12-05T12:07:48;5.30;1.10
1476;DHT22;730;48.870;12.542;2022-12-05T12:27:39;5.60;1.50
1476;DHT22;730;48.870;12.542;2022-12-05T12:30:16;5.70;1.30
1476;DHT22;730;48.870;12.542;2022-12-05T12:33:04;5.70;1.00
1476;DHT22;730;48.870;12.542;2022-12-05T12:35:49;5.70;1.00
1476;DHT22;730;48.870;12.542;2022-12-05T12:41:31;5.60;1.00
1476;DHT22;730;48.870;12.542;2022-12-05T12:46:59;5.80;1.00
1476;DHT22;730;48.870;12.542;2022-12-05T12:52:35;5.80;1.00
1476;DHT22;730;48.870;12.542;2022-12-05T12:55:10;5.90;1.00
1476;DHT22;730;48.870;12.542;2022-12-05T12:57:59;6.00;1.00
1476;DHT22;730;48.870;12.542;2022-12-05T13:03:16;6.00;1.00
1476;DHT22;730;48.870;12.542;2022-12-05T13:05:50;6.10;1.00
1476;DHT22;730;48.870;12.542;2022-12-05T13:08:35;6.10;1.00
1476;DHT22;730;48.870;12.542;2022-12-05T13:11:07;6.20;1.00
1476;DHT22;730;48.870;12.542;2022-12-05T13:13:47;6.20;1.00
1476;DHT22;730;48.870;12.542;2022-12-05T13:16:36;6.20;1.00
1476;DHT22;730;48.870;12.542;2022-12-05T13:19:05;6.30;1.00
1476;DHT22;730;48.870;12.542;2022-12-05T13:21:32;6.30;1.00
1476;DHT22;730;48.870;12.542;2022-12-05T13:23:59;6.30;1.00
1476;DHT22;730;48.870;12.542;2022-12-05T13:26:31;6.40;1.00
1476;DHT22;730;48.870;12.542;2022-12-05T13:29:02;6.40;1.00
1476;DHT22;730;48.870;12.542;2022-12-05T13:31:44;6.40;1.00
1476;DHT22;730;48.870;12.542;2022-12-05T13:34:34;6.40;1.00
1476;DHT22;730;48.870;12.542;2022-12-05T13:37:31;6.40;1.00
1476;DHT22;730;48.870;12.542;2022-12-05T13:40:26;6.50;1.00
1476;DHT22;730;48.870;12.542;2022-12-05T13:43:12;6.50;1.00
1476;DHT22;730;48.870;12.542;2022-12-05T13:45:41;6.50;1.00
1476;DHT22;730;48.870;12.542;2022-12-05T13:48:22;6.50;1.00
1476;DHT22;730;48.870;12.542;2022-12-05T13:50:56;6.50;1.00
1476;DHT22;730;48.870;12.542;2022-12-05T13:53:38;6.50;1.00
1476;DHT22;730;48.870;12.542;2022-12-05T14:04:02;6.60;1.00
1476;DHT22;730;48.870;12.542;2022-12-05T14:17:30;6.60;1.00
1476;DHT22;730;48.870;12.542;2022-12-05T14:20:22;6.50;1.00
1476;DHT22;730;48.870;12.542;2022-12-05T14:28:01;6.60;1.00
1476;DHT22;730;48.870;12.542;2022-12-05T14:33:14;6.60;1.00
1476;DHT22;730;48.870;12.542;2022-12-05T14:35:48;6.50;1.00
1476;DHT22;730;48.870;12.542;2022-12-05T14:38:33;6.50;1.00
1476;DHT22;730;48.870;12.542;2022-12-05T14:41:32;6.50;1.00
1476;DHT22;730;48.870;12.542;2022-12-05T14:44:01;6.40;1.00
1476;DHT22;730;48.870;12.542;2022-12-05T14:46:30;6.40;1.00
1476;DHT22;730;48.870;12.542;2022-12-05T14:48:57;6.30;1.00
1476;DHT22;730;48.870;12.542;2022-12-05T14:51:44;6.30;1.00
1476;DHT22;730;48.870;12.542;2022-12-05T14:54:19;6.30;1.00
1476;DHT22;730;48.870;12.542;2022-12-05T14:56:50;6.30;1.00
1476;DHT22;730;48.870;12.542;2022-12-05T15:01:48;6.30;1.00
1476;DHT22;730;48.870;12.542;2022-12-05T15:04:18;6.30;1.00
1476;DHT22;730;48.870;12.542;2022-12-05T15:06:54;6.30;1.00
1476;DHT22;730;48.870;12.542;2022-12-05T15:12:46;6.30;1.00
1476;DHT22;730;48.870;12.542;2022-12-05T15:15:29;6.20;1.00
1476;DHT22;730;48.870;12.542;2022-12-05T15:18:17;6.20;1.00
1476;DHT22;730;48.870;12.542;2022-12-05T15:29:04;6.10;1.00
1476;DHT22;730;48.870;12.542;2022-12-05T15:31:34;6.10;1.00
1476;DHT22;730;48.870;12.542;2022-12-05T15:34:28;6.10;1.00
1476;DHT22;730;48.870;12.542;2022-12-05T15:37:02;6.00;1.00
1476;DHT22;730;48.870;12.542;2022-12-05T15:39:58;6.00;1.00
1476;DHT22;730;48.870;12.542;2022-12-05T15:47:44;6.00;1.00
1476;DHT22;730;48.870;12.542;2022-12-05T15:50:15;6.00;1.00
1476;DHT22;730;48.870;12.542;2022-12-05T15:52:43;6.00;1.00
1476;DHT22;730;48.870;12.542;2022-12-05T15:55:14;6.00;1.00
1476;DHT22;730;48.870;12.542;2022-12-05T15:57:48;6.00;1.10
1476;DHT22;730;48.870;12.542;2022-12-05T16:00:17;6.10;1.20
1476;DHT22;730;48.870;12.542;2022-12-05T16:05:43;6.10;1.10
1476;DHT22;730;48.870;12.542;2022-12-05T16:08:11;6.10;1.10
1476;DHT22;730;48.870;12.542;2022-12-05T16:10:37;6.00;1.00
1476;DHT22;730;48.870;12.542;2022-12-05T16:13:13;6.10;1.10
1476;DHT22;730;48.870;12.542;2022-12-05T16:15:44;6.10;1.00
1476;DHT22;730;48.870;12.542;2022-12-05T16:18:30;6.00;1.10
1476;DHT22;730;48.870;12.542;2022-12-05T16:20:57;6.00;1.10
1476;DHT22;730;48.870;12.542;2022-12-05T16:23:29;6.00;1.10
1476;DHT22;730;48.870;12.542;2022-12-05T16:28:38;6.00;1.10
1476;DHT22;730;48.870;12.542;2022-12-05T16:31:05;6.00;1.00
1476;DHT22;730;48.870;12.542;2022-12-05T16:33:33;6.00;1.00
1476;DHT22;730;48.870;12.542;2022-12-05T16:36:10;6.00;1.00
1476;DHT22;730;48.870;12.542;2022-12-05T16:38:36;6.00;1.00
1476;DHT22;730;48.870;12.542;2022-12-05T16:41:05;6.00;1.10
1476;DHT22;730;48.870;12.542;2022-12-05T16:48:39;6.00;1.20
1476;DHT22;730;48.870;12.542;2022-12-05T16:53:44;5.90;1.50
1476;DHT22;730;48.870;12.542;2022-12-05T16:56:25;5.90;1.60
1476;DHT22;730;48.870;12.542;2022-12-05T16:58:53;5.90;1.70
1476;DHT22;730;48.870;12.542;2022-12-05T17:01:21;5.90;1.90
1476;DHT22;730;48.870;12.542;2022-12-05T17:03:48;5.90;2.00
1476;DHT22;730;48.870;12.542;2022-12-05T17:06:15;5.80;2.00
1476;DHT22;730;48.870;12.542;2022-12-05T17:08:43;5.90;2.20
1476;DHT22;730;48.870;12.542;2022-12-05T17:11:13;5.90;2.60
1476;DHT22;730;48.870;12.542;2022-12-05T17:13:45;5.90;2.80
1476;DHT22;730;48.870;12.542;2022-12-05T17:16:14;5.90;2.80
1476;DHT22;730;48.870;12.542;2022-12-05T17:18:41;5.90;2.80
1476;DHT22;730;48.870;12.542;2022-12-05T17:21:14;5.80;3.40
1476;DHT22;730;48.870;12.542;2022-12-05T17:23:41;5.90;2.90
1476;DHT22;730;48.870;12.542;2022-12-05T17:26:12;5.90;3.10
1476;DHT22;730;48.870;12.542;2022-12-05T17:28:38;5.80;3.10
1476;DHT22;730;48.870;12.542;2022-12-05T17:31:05;5.80;3.20
1476;DHT22;730;48.870;12.542;2022-12-05T17:33:33;5.80;3.40
1476;DHT22;730;48.870;12.542;2022-12-05T17:35:59;5.80;3.50
1476;DHT22;730;48.870;12.542;2022-12-05T17:38:25;5.80;3.70
1476;DHT22;730;48.870;12.542;2022-12-05T17:40:51;5.80;3.80
1476;DHT22;730;48.870;12.542;2022-12-05T17:43:17;5.80;4.00
1476;DHT22;730;48.870;12.542;2022-12-05T17:45:43;5.80;4.00
1476;DHT22;730;48.870;12.542;2022-12-05T17:48:13;5.80;4.10
1476;DHT22;730;48.870;12.542;2022-12-05T17:50:41;5.80;4.10
1476;DHT22;730;48.870;12.542;2022-12-05T17:53:12;5.80;4.30
1476;DHT22;730;48.870;12.542;2022-12-05T17:55:38;5.80;4.30
1476;DHT22;730;48.870;12.542;2022-12-05T17:58:04;5.80;4.40
1476;DHT22;730;48.870;12.542;2022-12-05T18:00:31;5.80;4.40
1476;DHT22;730;48.870;12.542;2022-12-05T18:02:57;5.80;4.40
1476;DHT22;730;48.870;12.542;2022-12-05T18:05:23;5.80;4.40
1476;DHT22;730;48.870;12.542;2022-12-05T18:07:49;5.80;4.50
1476;DHT22;730;48.870;12.542;2022-12-05T18:10:21;5.80;4.40
1476;DHT22;730;48.870;12.542;2022-12-05T18:12:49;5.80;4.30
1476;DHT22;730;48.870;12.542;2022-12-05T18:15:15;5.80;4.30
1476;DHT22;730;48.870;12.542;2022-12-05T18:17:42;5.80;4.30
1476;DHT22;730;48.870;12.542;2022-12-05T18:20:12;5.80;4.30
1476;DHT22;730;48.870;12.542;2022-12-05T18:22:39;5.80;4.40
1476;DHT22;730;48.870;12.542;2022-12-05T18:25:08;5.80;4.40
1476;DHT22;730;48.870;12.542;2022-12-05T18:27:35;5.80;4.50
1476;DHT22;730;48.870;12.542;2022-12-05T18:30:04;5.90;4.70
1476;DHT22;730;48.870;12.542;2022-12-05T18:32:30;5.80;4.70
1476;DHT22;730;48.870;12.542;2022-12-05T18:34:57;5.90;4.80
1476;DHT22;730;48.870;12.542;2022-12-05T18:37:24;5.90;4.90
1476;DHT22;730;48.870;12.542;2022-12-05T18:39:53;5.90;4.90
1476;DHT22;730;48.870;12.542;2022-12-05T18:42:21;5.90;5.00
1476;DHT22;730;48.870;12.542;2022-12-05T18:44:48;5.90;4.80
1476;DHT22;730;48.870;12.542;2022-12-05T18:47:14;5.90;4.90
1476;DHT22;730;48.870;12.542;2022-12-05T18:49:40;5.90;4.90
1476;DHT22;730;48.870;12.542;2022-12-05T18:52:07;5.90;4.90
1476;DHT22;730;48.870;12.542;2022-12-05T18:54:33;5.90;4.90
1476;DHT22;730;48.870;12.542;2022-12-05T18:56:59;5.90;5.00
1476;DHT22;730;48.870;12.542;2022-12-05T18:59:25;5.90;5.00
1476;DHT22;730;48.870;12.542;2022-12-05T19:01:53;5.90;5.10
1476;DHT22;730;48.870;12.542;2022-12-05T19:04:20;5.90;5.10
1476;DHT22;730;48.870;12.542;2022-12-05T19:06:55;5.90;5.20
1476;DHT22;730;48.870;12.542;2022-12-05T19:09:30;5.90;5.30
1476;DHT22;730;48.870;12.542;2022-12-05T19:11:57;5.90;5.40
1476;DHT22;730;48.870;12.542;2022-12-05T19:14:26;5.90;5.30
1476;DHT22;730;48.870;12.542;2022-12-05T19:16:53;5.90;5.30
1476;DHT22;730;48.870;12.542;2022-12-05T19:19:20;5.80;5.30
1476;DHT22;730;48.870;12.542;2022-12-05T19:21:47;5.90;5.40
1476;DHT22;730;48.870;12.542;2022-12-05T19:24:15;5.90;5.40
1476;DHT22;730;48.870;12.542;2022-12-05T19:26:43;5.90;5.50
1476;DHT22;730;48.870;12.542;2022-12-05T19:29:13;5.90;5.50
1476;DHT22;730;48.870;12.542;2022-12-05T19:31:41;5.90;5.50
1476;DHT22;730;48.870;12.542;2022-12-05T19:34:08;5.90;5.50
1476;DHT22;730;48.870;12.542;2022-12-05T19:36:36;5.90;5.50
1476;DHT22;730;48.870;12.542;2022-12-05T19:39:22;5.90;5.50